Time;durP1;ratioP1;P1;durP2;ratioP2;P2;SDS_P1;SDS_P2;PMS_P1;PMS_P2;Temp;Humidity;BMP_temperature;BMP_pressure;BME280_temperature;BME280_humidity;BME280_pressure;Samples;Min_cycle;Max_cycle;Signal;HPM_P1;HPM_P2
2021/12/08 00:01:11;;;;;;;;;;;4.20;65.90;;;;;;5071840;28;19908;-65
2021/12/08 00:03:38;;;;;;;;;;;4.30;65.80;;;;;;5073039;28;20019;-65
2021/12/08 00:06:04;;;;;;;;;;;4.30;65.70;;;;;;5073080;28;19954;-65
2021/12/08 00:08:32;;;;;;;;;;;4.30;65.60;;;;;;5073068;28;20374;-65
2021/12/08 00:13:26;;;;;;;;;;;4.20;65.50;;;;;;5073164;28;19909;-65
2021/12/08 00:15:53;;;;;;;;;;;4.20;65.50;;;;;;5072611;28;20297;-65
2021/12/08 00:18:24;;;;;;;;;;;4.20;65.40;;;;;;5072972;28;19909;-65
2021/12/08 00:20:52;;;;;;;;;;;4.20;65.40;;;;;;5071711;28;19908;-65
2021/12/08 00:23:19;;;;;;;;;;;4.20;66.20;;;;;;5072759;28;19908;-65
2021/12/08 00:25:44;;;;;;;;;;;4.20;65.50;;;;;;5071628;28;19931;-65
2021/12/08 00:28:11;;;;;;;;;;;4.20;65.50;;;;;;5072849;28;20374;-64
2021/12/08 00:30:38;;;;;;;;;;;4.20;65.60;;;;;;5072832;28;19908;-65
2021/12/08 00:33:04;;;;;;;;;;;4.20;65.60;;;;;;5072834;28;20263;-65
2021/12/08 00:35:29;;;;;;;;;;;4.20;65.60;;;;;;5072668;28;20392;-65
2021/12/08 00:37:56;;;;;;;;;;;4.20;65.50;;;;;;5072727;28;19944;-65
2021/12/08 00:40:21;;;;;;;;;;;4.20;65.50;;;;;;5071300;28;19999;-65
2021/12/08 00:42:47;;;;;;;;;;;4.30;65.50;;;;;;5072709;28;20352;-65
2021/12/08 00:45:14;;;;;;;;;;;4.30;65.30;;;;;;5072719;28;19908;-65
2021/12/08 00:47:40;;;;;;;;;;;4.30;65.20;;;;;;5072603;28;19931;-64
2021/12/08 00:50:07;;;;;;;;;;;4.30;65.20;;;;;;5072622;28;20374;-65
2021/12/08 00:52:33;;;;;;;;;;;4.20;65.00;;;;;;5072609;28;19912;-65
2021/12/08 00:54:59;;;;;;;;;;;4.20;65.80;;;;;;5072528;28;19913;-64
2021/12/08 00:57:25;;;;;;;;;;;4.20;65.00;;;;;;5072536;28;19908;-64
2021/12/08 00:59:51;;;;;;;;;;;4.30;65.10;;;;;;5072562;28;19909;-65
2021/12/08 01:02:16;;;;;;;;;;;4.30;65.10;;;;;;5074016;28;19909;-65
2021/12/08 01:04:42;;;;;;;;;;;4.30;65.10;;;;;;5076230;28;20354;-65
2021/12/08 01:07:08;;;;;;;;;;;4.30;64.90;;;;;;5076260;28;19909;-65
2021/12/08 01:09:34;;;;;;;;;;;4.30;64.90;;;;;;5076135;28;20361;-65
2021/12/08 01:12:02;;;;;;;;;;;4.30;64.90;;;;;;5074918;28;19912;-65
2021/12/08 01:14:29;;;;;;;;;;;4.30;64.90;;;;;;5076067;28;20289;-65
2021/12/08 01:16:54;;;;;;;;;;;4.30;64.90;;;;;;5075903;28;19928;-65
2021/12/08 01:19:20;;;;;;;;;;;4.30;64.90;;;;;;5076023;28;19908;-65
2021/12/08 01:21:46;;;;;;;;;;;4.40;65.00;;;;;;5075977;28;19908;-64
2021/12/08 01:24:11;;;;;;;;;;;4.40;64.90;;;;;;5075926;28;19908;-64
2021/12/08 01:26:37;;;;;;;;;;;4.40;64.80;;;;;;5075937;28;19909;-65
2021/12/08 01:29:03;;;;;;;;;;;4.40;64.80;;;;;;5075893;28;19912;-64
2021/12/08 01:31:29;;;;;;;;;;;4.40;64.70;;;;;;5074499;28;19928;-65
2021/12/08 01:33:54;;;;;;;;;;;4.40;64.70;;;;;;5075737;28;19948;-65
2021/12/08 01:36:20;;;;;;;;;;;4.50;64.70;;;;;;5075656;28;20294;-65
2021/12/08 01:38:46;;;;;;;;;;;4.50;64.60;;;;;;5075534;28;20046;-65
2021/12/08 01:41:12;;;;;;;;;;;4.50;64.50;;;;;;5075649;28;19909;-64
2021/12/08 01:45:57;;;;;;;;;;;4.50;64.50;;;;;;5075625;28;19916;-64
2021/12/08 01:46:30;;;;;;;;;;;4.50;64.40;;;;;;5075565;28;20383;-64
2021/12/08 01:48:56;;;;;;;;;;;4.60;64.30;;;;;;5074282;28;19947;-64
2021/12/08 01:51:21;;;;;;;;;;;4.60;64.20;;;;;;5075512;28;19958;-64
2021/12/08 01:53:48;;;;;;;;;;;4.60;64.10;;;;;;5074140;28;19915;-64
2021/12/08 01:56:15;;;;;;;;;;;4.70;64.00;;;;;;5075363;28;19939;-65
2021/12/08 01:58:41;;;;;;;;;;;4.70;63.90;;;;;;5075376;28;19930;-64
2021/12/08 02:01:08;;;;;;;;;;;4.70;64.50;;;;;;5075187;28;19909;-64
2021/12/08 02:03:34;;;;;;;;;;;4.70;63.60;;;;;;5075066;28;19909;-64
2021/12/08 02:06:00;;;;;;;;;;;4.70;63.50;;;;;;5075075;28;19958;-64
2021/12/08 02:08:26;;;;;;;;;;;4.80;63.40;;;;;;5074969;28;19908;-64
2021/12/08 02:10:52;;;;;;;;;;;4.70;63.30;;;;;;5074942;28;19909;-64
2021/12/08 02:13:17;;;;;;;;;;;4.80;63.20;;;;;;5073431;28;20394;-64
2021/12/08 02:15:43;;;;;;;;;;;4.80;63.10;;;;;;5073212;28;19924;-64
2021/12/08 02:18:11;;;;;;;;;;;4.80;63.00;;;;;;5074777;28;19962;-64
2021/12/08 02:20:38;;;;;;;;;;;4.80;62.90;;;;;;5074746;28;19905;-65
2021/12/08 02:23:04;;;;;;;;;;;4.80;62.80;;;;;;5074721;28;19913;-65
2021/12/08 02:25:29;;;;;;;;;;;4.80;62.70;;;;;;5074653;28;19946;-64
2021/12/08 02:27:57;;;;;;;;;;;4.80;62.60;;;;;;5074609;28;19944;-65
2021/12/08 02:30:32;;;;;;;;;;;4.80;62.50;;;;;;5074533;28;19904;-65
2021/12/08 02:49:08;;;;;;;;;;;4.80;61.90;;;;;;5074322;28;19908;-65
2021/12/08 02:51:36;;;;;;;;;;;4.80;61.80;;;;;;5074296;28;20424;-65
2021/12/08 02:54:02;;;;;;;;;;;4.80;61.80;;;;;;5074148;28;19909;-65
2021/12/08 02:56:28;;;;;;;;;;;4.80;61.70;;;;;;5074128;28;19958;-65
2021/12/08 02:58:53;;;;;;;;;;;4.80;61.60;;;;;;5072871;28;20027;-64
2021/12/08 03:01:19;;;;;;;;;;;4.80;61.50;;;;;;5074041;28;19909;-65
2021/12/08 03:03:44;;;;;;;;;;;4.80;61.40;;;;;;5074041;28;19974;-65
2021/12/08 03:06:11;;;;;;;;;;;4.80;61.40;;;;;;5073935;28;20298;-65
2021/12/08 03:08:37;;;;;;;;;;;4.80;61.30;;;;;;5073860;28;19909;-65
2021/12/08 03:11:03;;;;;;;;;;;4.80;61.20;;;;;;5073878;28;20282;-65
2021/12/08 03:13:30;;;;;;;;;;;4.80;61.10;;;;;;5073804;28;19958;-65
2021/12/08 03:15:55;;;;;;;;;;;4.80;61.10;;;;;;5073365;28;19927;-65
2021/12/08 03:18:22;;;;;;;;;;;4.80;61.10;;;;;;5073641;28;19908;-65
2021/12/08 03:20:51;;;;;;;;;;;4.80;61.10;;;;;;5073914;28;19909;-65
2021/12/08 03:23:23;;;;;;;;;;;4.70;61.00;;;;;;5073663;28;20358;-65
2021/12/08 03:25:55;;;;;;;;;;;4.80;61.00;;;;;;5073050;28;19950;-64
2021/12/08 03:28:25;;;;;;;;;;;4.80;61.00;;;;;;5073559;28;19908;-65
2021/12/08 03:33:23;;;;;;;;;;;4.70;60.90;;;;;;5073750;28;20366;-65
2021/12/08 03:35:49;;;;;;;;;;;4.70;60.90;;;;;;5073230;28;19919;-65
2021/12/08 03:38:15;;;;;;;;;;;4.70;60.90;;;;;;5073359;28;19912;-65
2021/12/08 03:40:41;;;;;;;;;;;4.70;60.90;;;;;;5073368;28;19950;-65
2021/12/08 03:43:07;;;;;;;;;;;4.60;60.80;;;;;;5072016;28;19912;-65
2021/12/08 03:45:37;;;;;;;;;;;4.60;61.00;;;;;;5073330;28;19904;-65
2021/12/08 03:48:07;;;;;;;;;;;4.60;61.00;;;;;;5073273;28;20419;-65
2021/12/08 03:50:35;;;;;;;;;;;4.60;61.00;;;;;;5073545;28;20334;-65
2021/12/08 03:53:01;;;;;;;;;;;4.60;61.00;;;;;;5073214;28;19995;-64
2021/12/08 03:55:26;;;;;;;;;;;4.60;61.00;;;;;;5071833;28;20007;-65
2021/12/08 03:57:52;;;;;;;;;;;4.60;61.00;;;;;;5073184;28;19908;-65
2021/12/08 04:00:20;;;;;;;;;;;4.60;61.00;;;;;;5073054;28;19909;-65
2021/12/08 04:02:46;;;;;;;;;;;4.60;61.00;;;;;;5071761;28;19908;-64
2021/12/08 04:05:12;;;;;;;;;;;4.60;61.00;;;;;;5073067;28;19953;-65
2021/12/08 04:07:44;;;;;;;;;;;4.60;61.00;;;;;;5072957;28;20001;-65
2021/12/08 04:10:16;;;;;;;;;;;4.60;61.00;;;;;;5073064;28;20362;-64
2021/12/08 04:12:42;;;;;;;;;;;4.50;60.90;;;;;;5072971;28;19909;-65
2021/12/08 04:15:08;;;;;;;;;;;4.60;61.00;;;;;;5072651;28;19948;-65
2021/12/08 04:17:36;;;;;;;;;;;4.60;61.10;;;;;;5072996;28;19915;-65
2021/12/08 04:20:05;;;;;;;;;;;4.60;61.00;;;;;;5072895;28;19931;-65
2021/12/08 04:22:36;;;;;;;;;;;4.50;61.00;;;;;;5072860;28;19909;-65
2021/12/08 04:25:06;;;;;;;;;;;4.50;61.00;;;;;;5071586;28;20358;-65
2021/12/08 04:27:34;;;;;;;;;;;4.60;61.10;;;;;;5072849;28;19916;-65
2021/12/08 04:29:59;;;;;;;;;;;4.50;61.00;;;;;;5072758;28;19916;-65
2021/12/08 04:32:27;;;;;;;;;;;4.60;61.10;;;;;;5072758;28;19908;-65
2021/12/08 04:34:56;;;;;;;;;;;4.60;61.10;;;;;;5072796;28;19909;-65
2021/12/08 04:37:27;;;;;;;;;;;4.60;61.10;;;;;;5074620;28;19915;-64
2021/12/08 04:40:21;;;;;;;;;;;4.60;61.10;;;;;;5076945;28;19957;-65
2021/12/08 04:45:23;;;;;;;;;;;4.60;61.10;;;;;;5077056;28;19920;-65
2021/12/08 05:01:44;;;;;;;;;;;4.80;61.00;;;;;;5076427;28;19974;-65
2021/12/08 05:09:43;;;;;;;;;;;4.80;61.00;;;;;;5076166;28;19916;-65
2021/12/08 05:12:11;;;;;;;;;;;4.80;61.00;;;;;;5076023;28;20010;-64
2021/12/08 05:14:39;;;;;;;;;;;4.80;61.00;;;;;;5075683;28;19909;-65
2021/12/08 05:17:07;;;;;;;;;;;4.80;60.90;;;;;;5075921;28;19919;-65
2021/12/08 05:19:33;;;;;;;;;;;4.80;60.90;;;;;;5075898;28;19952;-65
2021/12/08 05:22:03;;;;;;;;;;;4.80;60.70;;;;;;5075918;28;19962;-65
2021/12/08 05:24:32;;;;;;;;;;;4.90;60.70;;;;;;5075784;28;19951;-65
2021/12/08 05:27:02;;;;;;;;;;;4.80;60.60;;;;;;5075726;28;20280;-65
2021/12/08 05:29:36;;;;;;;;;;;4.80;60.50;;;;;;5075688;28;20399;-65
2021/12/08 05:32:03;;;;;;;;;;;4.80;60.50;;;;;;5075577;28;19909;-65
2021/12/08 05:34:29;;;;;;;;;;;4.80;60.40;;;;;;5075646;28;19961;-65
2021/12/08 05:36:54;;;;;;;;;;;4.70;60.30;;;;;;5075594;28;19916;-64
2021/12/08 05:39:22;;;;;;;;;;;4.70;60.30;;;;;;5076185;28;19963;-65
2021/12/08 05:41:51;;;;;;;;;;;4.60;60.30;;;;;;5075622;28;20308;-65
2021/12/08 05:44:17;;;;;;;;;;;4.60;60.40;;;;;;5075567;28;20376;-65
2021/12/08 05:46:44;;;;;;;;;;;4.60;60.50;;;;;;5075470;28;19908;-65
2021/12/08 05:49:12;;;;;;;;;;;4.50;60.50;;;;;;5073643;28;19931;-65
2021/12/08 05:51:38;;;;;;;;;;;4.50;60.50;;;;;;5075364;28;19909;-65
2021/12/08 05:54:06;;;;;;;;;;;4.40;60.50;;;;;;5075407;28;19916;-65
2021/12/08 05:56:33;;;;;;;;;;;4.40;60.50;;;;;;5075285;28;19996;-65
2021/12/08 05:59:00;;;;;;;;;;;4.40;60.60;;;;;;5075299;28;19915;-65
2021/12/08 06:01:38;;;;;;;;;;;4.30;60.60;;;;;;5075228;28;19905;-65
2021/12/08 06:04:04;;;;;;;;;;;4.30;60.70;;;;;;5075208;28;19960;-65
2021/12/08 06:06:30;;;;;;;;;;;4.20;60.70;;;;;;5075088;28;19904;-65
2021/12/08 06:08:56;;;;;;;;;;;4.20;60.80;;;;;;5075093;28;19908;-65
2021/12/08 06:11:24;;;;;;;;;;;4.10;60.90;;;;;;5075088;28;19927;-64
2021/12/08 06:13:51;;;;;;;;;;;4.10;61.00;;;;;;5073763;28;19909;-64
2021/12/08 06:16:19;;;;;;;;;;;4.10;61.20;;;;;;5074540;28;19935;-64
2021/12/08 06:18:44;;;;;;;;;;;4.10;61.30;;;;;;5074908;28;19909;-64
2021/12/08 06:21:13;;;;;;;;;;;4.00;61.30;;;;;;5074865;28;19958;-64
2021/12/08 06:23:39;;;;;;;;;;;4.00;61.50;;;;;;5074814;28;19958;-65
2021/12/08 06:26:05;;;;;;;;;;;4.00;61.50;;;;;;5074726;28;19909;-65
2021/12/08 06:28:31;;;;;;;;;;;4.00;61.60;;;;;;5074619;28;19923;-65
2021/12/08 06:30:57;;;;;;;;;;;4.00;61.70;;;;;;5074529;28;19909;-64
2021/12/08 06:33:22;;;;;;;;;;;4.00;61.90;;;;;;5073271;28;19909;-64
2021/12/08 06:35:51;;;;;;;;;;;4.00;62.10;;;;;;5074412;28;19913;-64
2021/12/08 06:38:17;;;;;;;;;;;4.00;62.30;;;;;;5073268;28;19908;-64
2021/12/08 06:40:49;;;;;;;;;;;4.00;62.30;;;;;;5074416;28;19928;-64
2021/12/08 06:43:19;;;;;;;;;;;4.00;62.40;;;;;;5074425;28;19916;-64
2021/12/08 06:45:47;;;;;;;;;;;4.00;62.40;;;;;;5073086;28;19911;-65
2021/12/08 06:48:16;;;;;;;;;;;3.90;62.30;;;;;;5073036;28;19957;-64
2021/12/08 06:50:47;;;;;;;;;;;3.90;62.40;;;;;;5074213;28;19911;-64
2021/12/08 06:53:13;;;;;;;;;;;3.90;62.60;;;;;;5074125;28;20354;-64
2021/12/08 06:55:41;;;;;;;;;;;3.90;62.70;;;;;;5073922;28;19912;-64
2021/12/08 06:58:09;;;;;;;;;;;4.00;62.90;;;;;;5074111;28;19908;-64
2021/12/08 07:00:57;;;;;;;;;;;3.90;62.90;;;;;;5071956;28;19911;-64
2021/12/08 07:03:42;;;;;;;;;;;4.00;63.00;;;;;;5074019;28;19908;-64
2021/12/08 07:06:28;;;;;;;;;;;4.00;63.10;;;;;;5074002;28;19909;-64
2021/12/08 07:08:55;;;;;;;;;;;4.00;63.10;;;;;;5074006;28;20289;-64
2021/12/08 07:11:22;;;;;;;;;;;4.00;63.10;;;;;;5072520;28;19904;-64
2021/12/08 07:13:48;;;;;;;;;;;4.00;63.10;;;;;;5073822;28;19935;-64
2021/12/08 07:16:16;;;;;;;;;;;4.00;63.10;;;;;;5073429;28;20362;-64
2021/12/08 07:18:52;;;;;;;;;;;4.00;63.10;;;;;;5073751;28;19916;-64
2021/12/08 07:21:18;;;;;;;;;;;4.00;63.10;;;;;;5073704;28;19940;-64
2021/12/08 07:23:46;;;;;;;;;;;4.10;63.10;;;;;;5073701;28;20416;-64
2021/12/08 07:26:19;;;;;;;;;;;4.10;63.10;;;;;;5073639;28;19909;-64
2021/12/08 07:28:46;;;;;;;;;;;4.10;63.20;;;;;;5073503;28;20282;-65
2021/12/08 07:31:12;;;;;;;;;;;4.10;63.40;;;;;;5073600;28;20016;-65
2021/12/08 07:33:38;;;;;;;;;;;4.10;63.40;;;;;;5073503;28;19942;-64
2021/12/08 07:36:10;;;;;;;;;;;4.20;63.60;;;;;;5073386;28;20254;-64
2021/12/08 07:38:35;;;;;;;;;;;4.20;63.60;;;;;;5073403;28;19916;-65
2021/12/08 07:41:09;;;;;;;;;;;4.20;63.70;;;;;;5073369;28;20262;-65
2021/12/08 07:43:37;;;;;;;;;;;4.30;63.70;;;;;;5073299;28;19909;-65
2021/12/08 07:46:06;;;;;;;;;;;4.30;63.70;;;;;;5073269;28;19915;-64
2021/12/08 07:48:37;;;;;;;;;;;4.30;64.40;;;;;;5072001;28;20269;-65
2021/12/08 07:51:10;;;;;;;;;;;4.40;63.60;;;;;;5073160;28;20384;-65
2021/12/08 07:53:35;;;;;;;;;;;4.40;63.60;;;;;;5073141;28;20374;-65
2021/12/08 07:56:04;;;;;;;;;;;4.50;63.70;;;;;;5073029;28;19918;-65
2021/12/08 07:58:31;;;;;;;;;;;4.50;63.60;;;;;;5071853;28;20006;-65
2021/12/08 08:01:07;;;;;;;;;;;4.60;63.70;;;;;;5073043;28;19915;-64
2021/12/08 08:03:34;;;;;;;;;;;4.60;63.60;;;;;;5073094;28;19908;-64
2021/12/08 08:06:00;;;;;;;;;;;4.60;63.60;;;;;;5073078;28;19908;-65
2021/12/08 08:08:30;;;;;;;;;;;4.70;63.60;;;;;;5073034;28;19908;-65
2021/12/08 08:10:59;;;;;;;;;;;4.70;63.60;;;;;;5072876;28;19908;-64
2021/12/08 08:13:25;;;;;;;;;;;4.80;63.60;;;;;;5072914;28;20397;-64
2021/12/08 08:15:54;;;;;;;;;;;4.80;63.60;;;;;;5072575;28;20329;-64
2021/12/08 08:18:24;;;;;;;;;;;4.90;63.70;;;;;;5072871;28;19995;-65
2021/12/08 08:20:55;;;;;;;;;;;4.90;63.70;;;;;;5073158;28;19912;-64
2021/12/08 08:23:22;;;;;;;;;;;5.00;63.80;;;;;;5072877;28;19909;-65
2021/12/08 08:25:49;;;;;;;;;;;5.10;63.80;;;;;;5071528;28;19995;-65
2021/12/08 08:28:16;;;;;;;;;;;5.20;63.80;;;;;;5072747;28;19916;-65
2021/12/08 08:30:45;;;;;;;;;;;5.20;63.70;;;;;;5072827;28;19959;-64
2021/12/08 08:33:11;;;;;;;;;;;5.30;63.80;;;;;;5072737;28;20282;-64
2021/12/08 08:35:51;;;;;;;;;;;5.40;63.80;;;;;;5072611;28;19912;-64
2021/12/08 08:38:37;;;;;;;;;;;5.50;63.80;;;;;;5072729;28;19916;-64
2021/12/08 08:41:07;;;;;;;;;;;5.60;63.60;;;;;;5071417;28;19905;-64
2021/12/08 08:43:35;;;;;;;;;;;5.70;63.60;;;;;;5072583;28;19912;-64
2021/12/08 08:46:23;;;;;;;;;;;5.80;63.40;;;;;;5072569;28;19916;-64
2021/12/08 08:48:52;;;;;;;;;;;5.80;63.20;;;;;;5072685;28;20246;-64
2021/12/08 08:51:21;;;;;;;;;;;5.90;62.80;;;;;;5072591;28;19909;-66
2021/12/08 08:53:50;;;;;;;;;;;6.00;62.70;;;;;;5072359;28;19904;-65
2021/12/08 08:56:21;;;;;;;;;;;6.10;62.60;;;;;;5072482;28;19920;-65
2021/12/08 08:58:49;;;;;;;;;;;6.20;62.50;;;;;;5072559;28;19909;-65
2021/12/08 09:01:21;;;;;;;;;;;6.30;62.40;;;;;;5072459;28;20380;-65
2021/12/08 09:03:49;;;;;;;;;;;6.50;62.40;;;;;;5072457;28;19909;-65
2021/12/08 09:06:24;;;;;;;;;;;6.60;62.30;;;;;;5072373;28;19930;-65
2021/12/08 09:08:50;;;;;;;;;;;6.70;62.30;;;;;;5072417;28;19958;-65
2021/12/08 09:11:18;;;;;;;;;;;6.80;62.90;;;;;;5072382;28;19908;-66
2021/12/08 09:14:08;;;;;;;;;;;6.90;61.90;;;;;;5072361;28;19947;-65
2021/12/08 09:16:41;;;;;;;;;;;7.00;61.50;;;;;;5071455;28;20003;-65
2021/12/08 09:19:13;;;;;;;;;;;7.10;61.30;;;;;;5072215;28;19908;-65
2021/12/08 09:21:55;;;;;;;;;;;7.20;61.00;;;;;;5072812;28;19958;-65
2021/12/08 09:24:34;;;;;;;;;;;7.20;60.60;;;;;;5075673;28;19909;-64
2021/12/08 09:27:00;;;;;;;;;;;7.30;60.20;;;;;;5075789;28;19915;-65
2021/12/08 09:29:44;;;;;;;;;;;7.30;60.10;;;;;;5075697;28;19908;-65
2021/12/08 09:32:13;;;;;;;;;;;7.40;60.00;;;;;;5074490;28;19908;-65
2021/12/08 09:34:42;;;;;;;;;;;7.40;59.80;;;;;;5075593;28;19917;-65
2021/12/08 09:37:19;;;;;;;;;;;7.40;59.70;;;;;;5075571;28;19995;-65
2021/12/08 09:39:50;;;;;;;;;;;7.40;59.50;;;;;;5075655;28;19912;-65
2021/12/08 09:42:31;;;;;;;;;;;7.40;59.40;;;;;;5075540;28;19908;-65
2021/12/08 09:45:03;;;;;;;;;;;7.40;59.40;;;;;;5075612;28;19916;-65
2021/12/08 09:47:29;;;;;;;;;;;7.40;59.30;;;;;;5075677;28;19909;-65
2021/12/08 09:49:57;;;;;;;;;;;7.50;59.20;;;;;;5075646;28;19987;-65
2021/12/08 09:52:27;;;;;;;;;;;7.40;59.00;;;;;;5075524;28;19908;-65
2021/12/08 09:54:53;;;;;;;;;;;7.40;59.00;;;;;;5074090;28;19916;-65
2021/12/08 09:57:19;;;;;;;;;;;7.40;59.00;;;;;;5075313;28;19909;-65
2021/12/08 09:59:47;;;;;;;;;;;7.50;59.00;;;;;;5075302;28;20472;-65
2021/12/08 10:02:16;;;;;;;;;;;7.50;58.90;;;;;;5075334;28;20358;-65
2021/12/08 10:04:42;;;;;;;;;;;7.50;58.80;;;;;;5075418;28;19909;-65
2021/12/08 10:07:10;;;;;;;;;;;7.50;58.80;;;;;;5075098;28;19915;-65
2021/12/08 10:09:36;;;;;;;;;;;7.50;58.70;;;;;;5074967;28;19984;-65
2021/12/08 10:12:02;;;;;;;;;;;7.50;58.50;;;;;;5074969;28;19908;-65
2021/12/08 10:14:28;;;;;;;;;;;7.50;58.50;;;;;;5074882;28;19930;-65
2021/12/08 10:16:54;;;;;;;;;;;7.50;58.40;;;;;;5074757;28;20358;-65
2021/12/08 10:19:20;;;;;;;;;;;7.50;58.40;;;;;;5074909;28;19931;-65
2021/12/08 10:21:46;;;;;;;;;;;7.50;58.40;;;;;;5074845;28;20015;-65
2021/12/08 10:24:19;;;;;;;;;;;7.50;58.30;;;;;;5074650;28;19916;-64
2021/12/08 10:26:46;;;;;;;;;;;7.50;58.30;;;;;;5074589;28;19908;-65
2021/12/08 10:29:12;;;;;;;;;;;7.50;58.20;;;;;;5074732;28;19908;-64
2021/12/08 10:31:40;;;;;;;;;;;7.50;58.20;;;;;;5074692;28;19909;-65
2021/12/08 10:36:46;;;;;;;;;;;7.50;58.10;;;;;;5074666;28;20014;-65
2021/12/08 10:39:14;;;;;;;;;;;7.50;58.00;;;;;;5073002;28;19931;-65
2021/12/08 10:41:44;;;;;;;;;;;7.40;57.80;;;;;;5074302;28;20366;-65
2021/12/08 10:44:10;;;;;;;;;;;7.50;57.80;;;;;;5074415;28;19961;-65
2021/12/08 10:46:37;;;;;;;;;;;7.40;57.80;;;;;;5074334;28;19909;-64
2021/12/08 10:54:24;;;;;;;;;;;7.40;57.70;;;;;;5074347;28;19909;-65
2021/12/08 10:54:56;;;;;;;;;;;7.40;57.90;;;;;;5074186;28;19974;-65
2021/12/08 10:57:32;;;;;;;;;;;7.40;57.80;;;;;;5074276;28;20346;-66
2021/12/08 10:59:59;;;;;;;;;;;7.40;57.70;;;;;;5074176;28;19948;-65
2021/12/08 11:02:43;;;;;;;;;;;7.50;57.70;;;;;;5074009;28;20383;-65
2021/12/08 11:05:24;;;;;;;;;;;7.50;57.70;;;;;;5073958;28;20366;-65
2021/12/08 11:08:10;;;;;;;;;;;7.50;57.60;;;;;;5072670;28;20269;-65
2021/12/08 11:10:39;;;;;;;;;;;7.50;57.60;;;;;;5072734;28;20370;-65
2021/12/08 11:13:05;;;;;;;;;;;7.60;57.70;;;;;;5073884;28;19909;-65
2021/12/08 11:15:30;;;;;;;;;;;7.60;57.80;;;;;;5073409;28;19969;-65
2021/12/08 11:18:10;;;;;;;;;;;7.70;57.90;;;;;;5072386;28;19908;-65
2021/12/08 11:20:59;;;;;;;;;;;7.70;57.90;;;;;;5074025;28;20293;-65
2021/12/08 11:23:45;;;;;;;;;;;7.80;57.80;;;;;;5073631;28;19909;-65
2021/12/08 11:26:27;;;;;;;;;;;7.90;57.70;;;;;;5073683;28;19908;-65
2021/12/08 11:28:58;;;;;;;;;;;8.00;57.70;;;;;;5073482;28;19944;-65
2021/12/08 11:31:26;;;;;;;;;;;8.00;57.60;;;;;;5073463;28;19909;-65
2021/12/08 11:34:04;;;;;;;;;;;8.10;57.50;;;;;;5073369;28;19940;-65
2021/12/08 11:36:31;;;;;;;;;;;8.10;57.20;;;;;;5073338;28;19948;-65
2021/12/08 11:38:57;;;;;;;;;;;8.10;56.90;;;;;;5073703;28;19916;-66
2021/12/08 11:41:36;;;;;;;;;;;8.10;56.90;;;;;;5073453;28;20270;-65
2021/12/08 11:44:05;;;;;;;;;;;8.10;56.80;;;;;;5073375;28;19916;-65
2021/12/08 11:46:33;;;;;;;;;;;8.10;56.50;;;;;;5073013;28;19919;-65
2021/12/08 11:49:04;;;;;;;;;;;8.10;56.30;;;;;;5073493;28;20277;-65
2021/12/08 11:51:35;;;;;;;;;;;8.00;56.20;;;;;;5073284;28;20377;-65
2021/12/08 11:54:01;;;;;;;;;;;8.00;56.20;;;;;;5073282;28;19932;-65
2021/12/08 11:56:32;;;;;;;;;;;7.90;56.30;;;;;;5073137;28;19913;-65
2021/12/08 11:58:57;;;;;;;;;;;7.90;56.30;;;;;;5071840;28;19909;-65
2021/12/08 12:01:23;;;;;;;;;;;7.80;56.30;;;;;;5073246;28;19958;-65
2021/12/08 12:03:52;;;;;;;;;;;7.80;56.30;;;;;;5073093;28;19909;-65
2021/12/08 12:06:18;;;;;;;;;;;7.80;56.40;;;;;;5073094;28;19928;-65
2021/12/08 12:08:46;;;;;;;;;;;7.80;56.40;;;;;;5073118;28;19909;-65
2021/12/08 12:11:13;;;;;;;;;;;7.80;56.50;;;;;;5073034;28;19904;-65
2021/12/08 12:13:38;;;;;;;;;;;7.80;56.40;;;;;;5071484;28;20416;-65
2021/12/08 12:16:04;;;;;;;;;;;7.80;56.30;;;;;;5072462;28;19920;-64
2021/12/08 12:18:31;;;;;;;;;;;7.90;56.40;;;;;;5072940;28;19999;-64
2021/12/08 12:21:03;;;;;;;;;;;7.90;56.50;;;;;;5072933;28;20017;-65
2021/12/08 12:23:31;;;;;;;;;;;7.90;56.60;;;;;;5072745;28;19909;-64
2021/12/08 12:26:15;;;;;;;;;;;7.80;56.50;;;;;;5071563;28;19915;-65
2021/12/08 12:28:53;;;;;;;;;;;7.90;56.40;;;;;;5072934;28;19908;-65
2021/12/08 12:31:25;;;;;;;;;;;7.80;56.40;;;;;;5072850;28;19908;-65
2021/12/08 12:33:51;;;;;;;;;;;7.90;56.40;;;;;;5072785;28;20370;-66
2021/12/08 12:36:18;;;;;;;;;;;7.80;56.30;;;;;;5072704;28;19916;-65
2021/12/08 12:38:44;;;;;;;;;;;7.90;56.40;;;;;;5072793;28;20273;-64
2021/12/08 12:41:22;;;;;;;;;;;7.80;56.30;;;;;;5072783;28;19904;-64
2021/12/08 12:43:50;;;;;;;;;;;7.90;56.40;;;;;;5072769;28;19909;-64
2021/12/08 12:46:16;;;;;;;;;;;7.90;56.40;;;;;;5072744;28;19940;-64
2021/12/08 12:48:48;;;;;;;;;;;7.90;56.40;;;;;;5072624;28;19962;-64
2021/12/08 12:51:14;;;;;;;;;;;7.90;56.30;;;;;;5071448;28;19905;-64
2021/12/08 12:53:41;;;;;;;;;;;7.90;56.30;;;;;;5072733;28;20303;-64
2021/12/08 12:56:08;;;;;;;;;;;7.90;56.30;;;;;;5072607;28;19913;-64
2021/12/08 12:58:43;;;;;;;;;;;7.90;56.30;;;;;;5074631;28;19935;-65
2021/12/08 13:01:10;;;;;;;;;;;7.90;56.20;;;;;;5076439;28;19908;-64
2021/12/08 13:03:38;;;;;;;;;;;7.90;56.10;;;;;;5075215;28;19958;-64
2021/12/08 13:06:05;;;;;;;;;;;7.90;56.20;;;;;;5076368;28;19916;-65
2021/12/08 13:08:32;;;;;;;;;;;7.90;56.20;;;;;;5076358;28;20351;-65
2021/12/08 13:11:10;;;;;;;;;;;7.90;56.10;;;;;;5076378;28;20281;-65
2021/12/08 13:13:46;;;;;;;;;;;7.90;56.10;;;;;;5076314;28;19908;-65
2021/12/08 13:16:29;;;;;;;;;;;7.90;56.10;;;;;;5075818;28;19920;-64
2021/12/08 13:18:55;;;;;;;;;;;7.90;56.10;;;;;;5074846;28;20007;-64
2021/12/08 13:21:41;;;;;;;;;;;7.90;55.90;;;;;;5076026;28;20286;-64
2021/12/08 13:24:25;;;;;;;;;;;7.80;55.80;;;;;;5075752;28;19909;-65
2021/12/08 13:26:58;;;;;;;;;;;7.80;55.70;;;;;;5076027;28;19909;-65
2021/12/08 13:29:24;;;;;;;;;;;7.80;55.80;;;;;;5076043;28;19915;-65
2021/12/08 13:31:59;;;;;;;;;;;7.70;55.90;;;;;;5075934;28;20050;-65
2021/12/08 13:34:31;;;;;;;;;;;7.70;56.00;;;;;;5075934;28;20289;-65
2021/12/08 13:37:12;;;;;;;;;;;7.70;55.90;;;;;;5075674;28;19913;-65
2021/12/08 13:39:38;;;;;;;;;;;7.80;55.90;;;;;;5075666;28;19944;-65
2021/12/08 13:42:08;;;;;;;;;;;7.70;55.90;;;;;;5075726;28;19962;-65
2021/12/08 13:44:36;;;;;;;;;;;7.70;56.00;;;;;;5075556;28;19912;-65
2021/12/08 13:47:09;;;;;;;;;;;7.70;56.00;;;;;;5074287;28;20366;-65
2021/12/08 13:49:48;;;;;;;;;;;7.70;56.00;;;;;;5075590;28;19909;-65
2021/12/08 13:52:16;;;;;;;;;;;7.70;56.00;;;;;;5076035;28;19954;-64
2021/12/08 13:54:46;;;;;;;;;;;7.80;56.10;;;;;;5075568;28;19916;-65
2021/12/08 13:57:30;;;;;;;;;;;7.80;56.20;;;;;;5075350;28;20011;-65
2021/12/08 14:00:22;;;;;;;;;;;7.80;56.00;;;;;;5075382;28;19916;-65
2021/12/08 14:02:49;;;;;;;;;;;7.70;56.00;;;;;;5075340;28;19995;-65
2021/12/08 14:05:33;;;;;;;;;;;7.70;56.00;;;;;;5074006;28;19912;-65
2021/12/08 14:08:02;;;;;;;;;;;7.80;56.00;;;;;;5075235;28;20423;-65
2021/12/08 14:10:30;;;;;;;;;;;7.70;56.00;;;;;;5074727;28;19915;-65
2021/12/08 14:13:00;;;;;;;;;;;7.70;56.00;;;;;;5074929;28;19930;-66
2021/12/08 14:15:32;;;;;;;;;;;7.80;56.00;;;;;;5074496;28;19925;-65
2021/12/08 14:18:16;;;;;;;;;;;7.70;56.00;;;;;;5074932;28;20026;-66
2021/12/08 14:20:44;;;;;;;;;;;7.70;56.00;;;;;;5074820;28;19911;-65
2021/12/08 14:23:10;;;;;;;;;;;7.60;55.90;;;;;;5073567;28;19908;-65
2021/12/08 14:25:35;;;;;;;;;;;7.60;55.90;;;;;;5074789;28;19977;-64
2021/12/08 14:28:21;;;;;;;;;;;7.60;55.90;;;;;;5074720;28;20262;-64
2021/12/08 14:30:46;;;;;;;;;;;7.50;55.90;;;;;;5073113;28;20429;-64
2021/12/08 14:33:12;;;;;;;;;;;7.50;55.90;;;;;;5074549;28;19905;-64
2021/12/08 14:35:38;;;;;;;;;;;7.40;55.90;;;;;;5074536;28;20358;-64
2021/12/08 14:38:04;;;;;;;;;;;7.40;56.00;;;;;;5074590;28;19958;-64
2021/12/08 14:40:30;;;;;;;;;;;7.30;56.00;;;;;;5075010;28;19959;-64
2021/12/08 14:42:56;;;;;;;;;;;7.30;56.00;;;;;;5073192;28;20309;-64
2021/12/08 14:45:28;;;;;;;;;;;7.30;56.00;;;;;;5074427;28;19997;-64
2021/12/08 14:47:53;;;;;;;;;;;7.20;56.00;;;;;;5074345;28;19916;-64
2021/12/08 14:50:24;;;;;;;;;;;7.20;56.00;;;;;;5074327;28;19909;-64
2021/12/08 14:52:51;;;;;;;;;;;7.10;56.00;;;;;;5074386;28;20282;-64
2021/12/08 14:55:21;;;;;;;;;;;7.10;55.90;;;;;;5074159;28;19908;-65
2021/12/08 14:57:51;;;;;;;;;;;7.00;55.90;;;;;;5073992;28;19909;-64
2021/12/08 15:00:29;;;;;;;;;;;6.90;55.90;;;;;;5074073;28;19916;-64
2021/12/08 15:03:10;;;;;;;;;;;6.80;56.00;;;;;;5074163;28;19909;-64
2021/12/08 15:05:36;;;;;;;;;;;6.80;56.00;;;;;;5074210;28;19909;-64
2021/12/08 15:08:06;;;;;;;;;;;6.70;56.10;;;;;;5074043;28;19992;-64
2021/12/08 15:10:32;;;;;;;;;;;6.60;56.20;;;;;;5073902;28;19912;-64
2021/12/08 15:13:10;;;;;;;;;;;6.60;56.40;;;;;;5072542;28;19915;-64
2021/12/08 15:15:36;;;;;;;;;;;6.50;56.50;;;;;;5073470;28;19920;-65
2021/12/08 15:18:04;;;;;;;;;;;6.50;56.60;;;;;;5073538;28;19917;-65
2021/12/08 15:20:35;;;;;;;;;;;6.50;56.70;;;;;;5073111;28;20017;-65
2021/12/08 15:23:02;;;;;;;;;;;6.50;56.70;;;;;;5073613;28;19947;-65
2021/12/08 15:25:28;;;;;;;;;;;6.50;56.80;;;;;;5073713;28;19908;-64
2021/12/08 15:27:55;;;;;;;;;;;6.50;56.80;;;;;;5073554;28;19908;-65
2021/12/08 15:30:39;;;;;;;;;;;6.40;56.80;;;;;;5073415;28;19909;-65
2021/12/08 15:33:07;;;;;;;;;;;6.40;56.80;;;;;;5073486;28;19908;-64